Terminal Aerodrome Forecast
Issued by NWS

Home | Current Version | Previous Version | Text Only | Print | Product List | Glossary On
Versions: 1 2 3 4 5 6 7 8 9 10 11 12
000
FTUS44 KEPZ 181700
TAFLRU
TAF
KLRU 181721Z 1818/1918 24008KT P6SM FEW040 BKN060
     FM182000 23007KT P6SM VCSH SCT040 BKN060
      TEMPO 1822/1902 5SM -TSRA BKN025CB
     FM190300 29007KT P6SM SCT025 BKN050
     FM191000 31005KT P6SM FEW050=

USA.gov is the U.S. government's official web portal to all federal, state and local government web resources and services.